sensor_id;sensor_type;location;lat;lon;timestamp;pressure;altitude;pressure_sealevel;temperature;humidity
28267;BME280;15525;45.568;5.448;2022-10-31T00:00:57;98511.31;;;18.45;58.41
28267;BME280;15525;45.568;5.448;2022-10-31T00:03:22;98503.44;;;18.35;58.63
28267;BME280;15525;45.568;5.448;2022-10-31T00:05:49;98514.69;;;18.42;58.77
28267;BME280;15525;45.568;5.448;2022-10-31T00:08:16;98504.56;;;18.34;58.74
28267;BME280;15525;45.568;5.448;2022-10-31T00:10:42;98495.06;;;18.23;58.87
28267;BME280;15525;45.568;5.448;2022-10-31T00:13:09;98517.50;;;18.37;58.86
28267;BME280;15525;45.568;5.448;2022-10-31T00:15:36;98521.00;;;18.38;58.83
28267;BME280;15525;45.568;5.448;2022-10-31T00:18:03;98516.78;;;18.32;58.98
28267;BME280;15525;45.568;5.448;2022-10-31T00:20:29;98513.81;;;18.20;59.24
28267;BME280;15525;45.568;5.448;2022-10-31T00:22:59;98506.03;;;18.05;59.65
28267;BME280;15525;45.568;5.448;2022-10-31T00:25:26;98495.03;;;18.01;59.41
28267;BME280;15525;45.568;5.448;2022-10-31T00:27:52;98507.22;;;18.12;59.61
28267;BME280;15525;45.568;5.448;2022-10-31T00:30:17;98485.25;;;18.14;59.83
28267;BME280;15525;45.568;5.448;2022-10-31T00:32:42;98487.09;;;18.27;59.35
28267;BME280;15525;45.568;5.448;2022-10-31T00:35:08;98500.59;;;18.40;59.05
28267;BME280;15525;45.568;5.448;2022-10-31T00:37:33;98482.75;;;18.39;59.08
28267;BME280;15525;45.568;5.448;2022-10-31T00:39:59;98491.81;;;18.35;59.44
28267;BME280;15525;45.568;5.448;2022-10-31T00:42:24;98481.28;;;18.33;59.49
28267;BME280;15525;45.568;5.448;2022-10-31T00:44:50;98479.97;;;18.31;59.31
28267;BME280;15525;45.568;5.448;2022-10-31T00:47:16;98494.53;;;18.35;59.52
28267;BME280;15525;45.568;5.448;2022-10-31T00:49:41;98501.25;;;18.37;59.59
28267;BME280;15525;45.568;5.448;2022-10-31T00:52:07;98486.16;;;18.31;59.55
28267;BME280;15525;45.568;5.448;2022-10-31T00:54:32;98503.09;;;18.50;59.54
28267;BME280;15525;45.568;5.448;2022-10-31T00:56:58;98487.06;;;18.40;59.38
28267;BME280;15525;45.568;5.448;2022-10-31T00:59:23;98503.72;;;18.47;59.67
28267;BME280;15525;45.568;5.448;2022-10-31T01:01:49;98495.19;;;18.40;59.68
28267;BME280;15525;45.568;5.448;2022-10-31T01:04:14;98483.25;;;18.41;59.53
28267;BME280;15525;45.568;5.448;2022-10-31T01:06:39;98472.59;;;18.31;59.55
28267;BME280;15525;45.568;5.448;2022-10-31T01:09:05;98498.47;;;18.51;59.46
28267;BME280;15525;45.568;5.448;2022-10-31T01:11:30;98494.16;;;18.50;59.18
28267;BME280;15525;45.568;5.448;2022-10-31T01:13:56;98486.56;;;18.38;59.83
28267;BME280;15525;45.568;5.448;2022-10-31T01:16:24;98475.03;;;18.33;59.79
28267;BME280;15525;45.568;5.448;2022-10-31T01:18:50;98495.88;;;18.46;59.92
28267;BME280;15525;45.568;5.448;2022-10-31T01:21:20;98487.69;;;18.37;60.18
28267;BME280;15525;45.568;5.448;2022-10-31T01:23:46;98481.16;;;18.38;60.03
28267;BME280;15525;45.568;5.448;2022-10-31T01:26:17;98469.56;;;18.46;60.13
28267;BME280;15525;45.568;5.448;2022-10-31T01:31:13;98483.34;;;18.58;60.03
28267;BME280;15525;45.568;5.448;2022-10-31T01:33:39;98460.28;;;18.39;60.01
28267;BME280;15525;45.568;5.448;2022-10-31T01:36:29;98475.34;;;18.53;60.33
28267;BME280;15525;45.568;5.448;2022-10-31T01:38:57;98488.91;;;18.53;60.27
28267;BME280;15525;45.568;5.448;2022-10-31T01:41:26;98479.78;;;18.49;60.11
28267;BME280;15525;45.568;5.448;2022-10-31T01:44:00;98462.41;;;18.28;60.39
28267;BME280;15525;45.568;5.448;2022-10-31T01:49:12;98469.25;;;18.26;60.55
28267;BME280;15525;45.568;5.448;2022-10-31T01:51:44;98459.78;;;18.37;60.52
28267;BME280;15525;45.568;5.448;2022-10-31T01:54:13;98478.56;;;18.55;60.41
28267;BME280;15525;45.568;5.448;2022-10-31T01:56:42;98449.44;;;18.39;59.90
28267;BME280;15525;45.568;5.448;2022-10-31T01:59:11;98458.22;;;18.44;60.23
28267;BME280;15525;45.568;5.448;2022-10-31T02:01:38;98443.81;;;18.35;60.28
28267;BME280;15525;45.568;5.448;2022-10-31T02:04:04;98469.91;;;18.53;60.13
28267;BME280;15525;45.568;5.448;2022-10-31T02:06:37;98481.88;;;18.52;60.63
28267;BME280;15525;45.568;5.448;2022-10-31T02:09:05;98443.72;;;18.27;60.18
28267;BME280;15525;45.568;5.448;2022-10-31T02:11:31;98471.44;;;18.37;60.44
28267;BME280;15525;45.568;5.448;2022-10-31T02:13:58;98474.13;;;18.37;60.26
28267;BME280;15525;45.568;5.448;2022-10-31T02:16:25;98459.38;;;18.30;60.59
28267;BME280;15525;45.568;5.448;2022-10-31T02:18:51;98455.63;;;18.39;60.25
28267;BME280;15525;45.568;5.448;2022-10-31T02:21:20;98464.00;;;18.29;60.55
28267;BME280;15525;45.568;5.448;2022-10-31T02:26:45;98456.28;;;18.36;60.83
28267;BME280;15525;45.568;5.448;2022-10-31T02:32:10;98462.22;;;18.25;60.65
28267;BME280;15525;45.568;5.448;2022-10-31T02:37:37;98463.19;;;18.29;60.86
28267;BME280;15525;45.568;5.448;2022-10-31T02:40:20;98452.28;;;18.20;60.90
28267;BME280;15525;45.568;5.448;2022-10-31T02:43:06;98445.75;;;18.21;60.91
28267;BME280;15525;45.568;5.448;2022-10-31T02:48:13;98458.44;;;18.12;61.00
28267;BME280;15525;45.568;5.448;2022-10-31T02:50:48;98455.84;;;18.07;60.79
28267;BME280;15525;45.568;5.448;2022-10-31T02:53:16;98447.38;;;18.00;60.82
28267;BME280;15525;45.568;5.448;2022-10-31T02:55:43;98468.84;;;18.19;60.73
28267;BME280;15525;45.568;5.448;2022-10-31T02:58:15;98459.44;;;18.16;60.79
28267;BME280;15525;45.568;5.448;2022-10-31T03:09:33;98448.22;;;18.31;60.58
28267;BME280;15525;45.568;5.448;2022-10-31T03:12:25;98442.53;;;18.33;60.61
28267;BME280;15525;45.568;5.448;2022-10-31T03:14:59;98434.78;;;18.26;60.55
28267;BME280;15525;45.568;5.448;2022-10-31T03:17:45;98444.19;;;18.42;60.44
28267;BME280;15525;45.568;5.448;2022-10-31T03:20:13;98425.31;;;18.15;60.90
28267;BME280;15525;45.568;5.448;2022-10-31T03:22:41;98425.38;;;18.02;60.57
28267;BME280;15525;45.568;5.448;2022-10-31T03:25:08;98433.56;;;18.10;60.72
28267;BME280;15525;45.568;5.448;2022-10-31T03:27:36;98437.06;;;18.11;60.76
28267;BME280;15525;45.568;5.448;2022-10-31T03:30:05;98457.44;;;18.08;61.01
28267;BME280;15525;45.568;5.448;2022-10-31T03:32:47;98449.44;;;18.03;61.60
28267;BME280;15525;45.568;5.448;2022-10-31T03:35:15;98447.66;;;17.99;60.82
28267;BME280;15525;45.568;5.448;2022-10-31T03:37:42;98415.31;;;17.80;60.90
28267;BME280;15525;45.568;5.448;2022-10-31T03:40:08;98420.00;;;17.88;60.91
28267;BME280;15525;45.568;5.448;2022-10-31T03:42:39;98442.25;;;17.99;61.18
28267;BME280;15525;45.568;5.448;2022-10-31T03:47:32;98430.72;;;17.93;60.75
28267;BME280;15525;45.568;5.448;2022-10-31T03:49:58;98423.03;;;17.87;60.86
28267;BME280;15525;45.568;5.448;2022-10-31T03:52:55;98449.19;;;18.13;60.85
28267;BME280;15525;45.568;5.448;2022-10-31T03:55:29;98452.28;;;17.98;60.78
28267;BME280;15525;45.568;5.448;2022-10-31T03:58:27;98443.78;;;17.91;60.76
28267;BME280;15525;45.568;5.448;2022-10-31T04:00:55;98443.50;;;17.79;60.60
28267;BME280;15525;45.568;5.448;2022-10-31T04:03:27;98447.94;;;17.75;60.96
28267;BME280;15525;45.568;5.448;2022-10-31T04:05:55;98437.91;;;17.76;61.05
28267;BME280;15525;45.568;5.448;2022-10-31T04:08:25;98442.16;;;17.90;60.62
28267;BME280;15525;45.568;5.448;2022-10-31T04:10:54;98424.97;;;17.73;61.02
28267;BME280;15525;45.568;5.448;2022-10-31T04:13:26;98445.50;;;17.87;61.08
28267;BME280;15525;45.568;5.448;2022-10-31T04:15:54;98436.38;;;17.83;60.56
28267;BME280;15525;45.568;5.448;2022-10-31T04:18:21;98450.94;;;17.74;61.01
28267;BME280;15525;45.568;5.448;2022-10-31T04:20:47;98429.94;;;17.57;60.92
28267;BME280;15525;45.568;5.448;2022-10-31T04:23:22;98441.78;;;17.48;61.79
28267;BME280;15525;45.568;5.448;2022-10-31T04:25:48;98451.09;;;17.42;61.62
28267;BME280;15525;45.568;5.448;2022-10-31T04:28:13;98421.34;;;17.28;61.83
28267;BME280;15525;45.568;5.448;2022-10-31T04:30:39;98455.41;;;17.56;61.41
28267;BME280;15525;45.568;5.448;2022-10-31T04:33:04;98455.81;;;17.63;61.47
28267;BME280;15525;45.568;5.448;2022-10-31T04:35:30;98448.56;;;17.72;60.98
28267;BME280;15525;45.568;5.448;2022-10-31T04:37:55;98448.75;;;17.76;60.90
28267;BME280;15525;45.568;5.448;2022-10-31T04:40:21;98457.06;;;17.79;61.05
28267;BME280;15525;45.568;5.448;2022-10-31T04:42:46;98443.47;;;17.57;60.93
28267;BME280;15525;45.568;5.448;2022-10-31T04:45:12;98421.50;;;17.59;60.76
28267;BME280;15525;45.568;5.448;2022-10-31T04:47:38;98414.19;;;17.59;60.89
28267;BME280;15525;45.568;5.448;2022-10-31T04:50:04;98436.63;;;17.73;61.30
28267;BME280;15525;45.568;5.448;2022-10-31T04:52:29;98435.94;;;17.68;61.06
28267;BME280;15525;45.568;5.448;2022-10-31T04:54:58;98421.50;;;17.59;61.01
28267;BME280;15525;45.568;5.448;2022-10-31T04:57:25;98405.25;;;17.59;60.93
28267;BME280;15525;45.568;5.448;2022-10-31T04:59:50;98430.91;;;17.75;60.88
28267;BME280;15525;45.568;5.448;2022-10-31T05:02:16;98404.97;;;17.60;60.90
28267;BME280;15525;45.568;5.448;2022-10-31T05:04:41;98407.06;;;17.63;60.94
28267;BME280;15525;45.568;5.448;2022-10-31T05:07:07;98424.91;;;17.64;61.11
28267;BME280;15525;45.568;5.448;2022-10-31T05:09:32;98429.03;;;17.62;61.38
28267;BME280;15525;45.568;5.448;2022-10-31T05:11:58;98440.44;;;17.72;61.15
28267;BME280;15525;45.568;5.448;2022-10-31T05:14:23;98452.13;;;17.81;61.44
28267;BME280;15525;45.568;5.448;2022-10-31T05:16:48;98419.88;;;17.71;61.33
28267;BME280;15525;45.568;5.448;2022-10-31T05:19:14;98398.44;;;17.61;61.25
28267;BME280;15525;45.568;5.448;2022-10-31T05:21:39;98417.28;;;17.66;61.19
28267;BME280;15525;45.568;5.448;2022-10-31T05:24:05;98433.28;;;17.76;61.45
28267;BME280;15525;45.568;5.448;2022-10-31T05:26:30;98409.97;;;17.67;61.56
28267;BME280;15525;45.568;5.448;2022-10-31T05:28:56;98409.34;;;17.70;61.43
28267;BME280;15525;45.568;5.448;2022-10-31T05:31:21;98408.03;;;17.67;61.48
28267;BME280;15525;45.568;5.448;2022-10-31T05:33:47;98397.84;;;17.64;61.53
28267;BME280;15525;45.568;5.448;2022-10-31T05:36:12;98426.66;;;17.82;61.43
28267;BME280;15525;45.568;5.448;2022-10-31T05:38:38;98389.03;;;17.59;61.60
28267;BME280;15525;45.568;5.448;2022-10-31T05:41:03;98383.59;;;17.59;61.64
28267;BME280;15525;45.568;5.448;2022-10-31T05:43:29;98390.44;;;17.56;61.69
28267;BME280;15525;45.568;5.448;2022-10-31T05:45:55;98360.78;;;17.51;62.24
28267;BME280;15525;45.568;5.448;2022-10-31T05:48:21;98391.50;;;17.69;61.94
28267;BME280;15525;45.568;5.448;2022-10-31T05:50:49;98403.00;;;17.74;61.95
28267;BME280;15525;45.568;5.448;2022-10-31T05:53:15;98395.91;;;17.65;61.86
28267;BME280;15525;45.568;5.448;2022-10-31T05:55:42;98408.03;;;17.67;62.09
28267;BME280;15525;45.568;5.448;2022-10-31T05:58:08;98427.09;;;17.76;62.25
28267;BME280;15525;45.568;5.448;2022-10-31T06:00:33;98414.03;;;17.78;61.88
28267;BME280;15525;45.568;5.448;2022-10-31T06:03:01;98414.41;;;17.85;61.83
28267;BME280;15525;45.568;5.448;2022-10-31T06:05:27;98380.28;;;17.62;61.46
28267;BME280;15525;45.568;5.448;2022-10-31T06:07:53;98398.72;;;17.73;61.69
28267;BME280;15525;45.568;5.448;2022-10-31T06:10:18;98399.69;;;17.77;61.64
28267;BME280;15525;45.568;5.448;2022-10-31T06:12:46;98386.88;;;17.69;61.64
28267;BME280;15525;45.568;5.448;2022-10-31T06:15:12;98372.59;;;17.55;61.80
28267;BME280;15525;45.568;5.448;2022-10-31T06:17:37;98364.38;;;17.47;61.44
28267;BME280;15525;45.568;5.448;2022-10-31T06:20:03;98396.72;;;17.65;62.06
28267;BME280;15525;45.568;5.448;2022-10-31T06:22:29;98411.13;;;17.74;61.76
28267;BME280;15525;45.568;5.448;2022-10-31T06:24:55;98390.19;;;17.66;61.70
28267;BME280;15525;45.568;5.448;2022-10-31T06:27:20;98405.00;;;17.82;61.73
28267;BME280;15525;45.568;5.448;2022-10-31T06:29:46;98406.00;;;17.86;61.42
28267;BME280;15525;45.568;5.448;2022-10-31T06:32:12;98379.13;;;17.76;61.35
28267;BME280;15525;45.568;5.448;2022-10-31T06:34:38;98364.72;;;17.67;61.53
28267;BME280;15525;45.568;5.448;2022-10-31T06:37:06;98366.34;;;17.68;61.26
28267;BME280;15525;45.568;5.448;2022-10-31T06:39:32;98364.94;;;17.71;61.67
28267;BME280;15525;45.568;5.448;2022-10-31T06:41:57;98365.91;;;17.75;61.39
28267;BME280;15525;45.568;5.448;2022-10-31T06:44:23;98346.56;;;17.68;61.56
28267;BME280;15525;45.568;5.448;2022-10-31T06:46:48;98341.34;;;17.71;61.47
28267;BME280;15525;45.568;5.448;2022-10-31T06:49:13;98360.03;;;17.81;61.37
28267;BME280;15525;45.568;5.448;2022-10-31T06:51:39;98369.66;;;17.87;61.44
28267;BME280;15525;45.568;5.448;2022-10-31T06:54:04;98375.31;;;17.99;61.58
28267;BME280;15525;45.568;5.448;2022-10-31T06:56:30;98359.19;;;17.94;61.70
28267;BME280;15525;45.568;5.448;2022-10-31T06:58:55;98374.09;;;18.05;61.42
28267;BME280;15525;45.568;5.448;2022-10-31T07:01:21;98381.59;;;18.08;61.20
28267;BME280;15525;45.568;5.448;2022-10-31T07:03:46;98376.88;;;18.22;61.26
28267;BME280;15525;45.568;5.448;2022-10-31T07:06:11;98369.88;;;18.21;61.30
28267;BME280;15525;45.568;5.448;2022-10-31T07:08:37;98380.03;;;18.38;61.21
28267;BME280;15525;45.568;5.448;2022-10-31T07:11:02;98366.19;;;18.39;61.48
28267;BME280;15525;45.568;5.448;2022-10-31T07:13:28;98349.00;;;18.44;61.23
28267;BME280;15525;45.568;5.448;2022-10-31T07:15:54;98337.56;;;18.55;60.78
28267;BME280;15525;45.568;5.448;2022-10-31T07:18:21;98356.25;;;18.65;60.62
28267;BME280;15525;45.568;5.448;2022-10-31T07:20:47;98388.13;;;18.99;60.83
28267;BME280;15525;45.568;5.448;2022-10-31T07:23:13;98389.81;;;19.25;60.40
28267;BME280;15525;45.568;5.448;2022-10-31T07:25:39;98369.88;;;19.30;60.07
28267;BME280;15525;45.568;5.448;2022-10-31T07:28:04;98390.34;;;19.44;60.21
28267;BME280;15525;45.568;5.448;2022-10-31T07:30:30;98385.41;;;19.46;60.09
28267;BME280;15525;45.568;5.448;2022-10-31T07:32:55;98393.38;;;19.60;60.16
28267;BME280;15525;45.568;5.448;2022-10-31T07:35:23;98390.81;;;19.63;60.06
28267;BME280;15525;45.568;5.448;2022-10-31T07:37:50;98391.63;;;19.72;60.06
28267;BME280;15525;45.568;5.448;2022-10-31T07:40:16;98405.69;;;19.66;60.62
28267;BME280;15525;45.568;5.448;2022-10-31T07:42:44;98382.03;;;19.49;60.94
28267;BME280;15525;45.568;5.448;2022-10-31T07:45:12;98407.16;;;19.80;60.69
28267;BME280;15525;45.568;5.448;2022-10-31T07:47:39;98429.88;;;20.10;60.21
28267;BME280;15525;45.568;5.448;2022-10-31T07:50:05;98398.16;;;20.05;59.97
28267;BME280;15525;45.568;5.448;2022-10-31T07:52:30;98411.31;;;20.20;59.87
28267;BME280;15525;45.568;5.448;2022-10-31T07:54:56;98402.34;;;20.20;59.75
28267;BME280;15525;45.568;5.448;2022-10-31T07:57:21;98414.66;;;20.34;59.98
28267;BME280;15525;45.568;5.448;2022-10-31T07:59:47;98433.81;;;20.38;59.82
28267;BME280;15525;45.568;5.448;2022-10-31T08:02:12;98440.25;;;20.16;60.90
28267;BME280;15525;45.568;5.448;2022-10-31T08:04:38;98411.47;;;19.98;60.64
28267;BME280;15525;45.568;5.448;2022-10-31T08:07:03;98428.03;;;20.48;59.91
28267;BME280;15525;45.568;5.448;2022-10-31T08:09:28;98409.03;;;20.39;60.48
28267;BME280;15525;45.568;5.448;2022-10-31T08:11:54;98423.03;;;20.75;59.82
28267;BME280;15525;45.568;5.448;2022-10-31T08:14:19;98395.91;;;20.96;59.42
28267;BME280;15525;45.568;5.448;2022-10-31T08:16:45;98411.31;;;21.50;58.42
28267;BME280;15525;45.568;5.448;2022-10-31T08:19:11;98411.88;;;21.85;57.89
28267;BME280;15525;45.568;5.448;2022-10-31T08:21:36;98372.50;;;21.74;57.34
28267;BME280;15525;45.568;5.448;2022-10-31T08:24:02;98414.94;;;22.04;57.27
28267;BME280;15525;45.568;5.448;2022-10-31T08:26:27;98420.25;;;22.00;57.24
28267;BME280;15525;45.568;5.448;2022-10-31T08:28:53;98423.88;;;22.04;57.15
28267;BME280;15525;45.568;5.448;2022-10-31T08:31:20;98429.88;;;21.98;57.30
28267;BME280;15525;45.568;5.448;2022-10-31T08:33:46;98424.44;;;21.98;56.91
28267;BME280;15525;45.568;5.448;2022-10-31T08:36:11;98438.66;;;22.03;57.03
28267;BME280;15525;45.568;5.448;2022-10-31T08:38:36;98417.34;;;21.85;57.27
28267;BME280;15525;45.568;5.448;2022-10-31T08:41:02;98430.78;;;21.90;57.49
28267;BME280;15525;45.568;5.448;2022-10-31T08:43:27;98420.91;;;21.97;57.09
28267;BME280;15525;45.568;5.448;2022-10-31T08:45:52;98442.06;;;22.21;56.51
28267;BME280;15525;45.568;5.448;2022-10-31T08:48:20;98439.50;;;22.16;56.49
28267;BME280;15525;45.568;5.448;2022-10-31T08:50:46;98434.22;;;21.99;56.78
28267;BME280;15525;45.568;5.448;2022-10-31T08:53:22;98426.59;;;22.25;56.04
28267;BME280;15525;45.568;5.448;2022-10-31T08:55:47;98402.50;;;22.47;55.59
28267;BME280;15525;45.568;5.448;2022-10-31T08:58:17;98426.41;;;22.62;55.35
28267;BME280;15525;45.568;5.448;2022-10-31T09:00:43;98414.56;;;22.58;55.20
28267;BME280;15525;45.568;5.448;2022-10-31T09:03:15;98397.97;;;22.51;55.32
28267;BME280;15525;45.568;5.448;2022-10-31T09:05:41;98420.56;;;22.52;55.53
28267;BME280;15525;45.568;5.448;2022-10-31T09:08:07;98429.81;;;22.59;55.15
28267;BME280;15525;45.568;5.448;2022-10-31T09:10:34;98403.66;;;22.58;55.09
28267;BME280;15525;45.568;5.448;2022-10-31T09:13:02;98419.59;;;22.68;54.49
28267;BME280;15525;45.568;5.448;2022-10-31T09:15:32;98427.94;;;22.84;54.20
28267;BME280;15525;45.568;5.448;2022-10-31T09:17:57;98414.41;;;22.87;53.78
28267;BME280;15525;45.568;5.448;2022-10-31T09:20:23;98427.53;;;23.18;53.80
28267;BME280;15525;45.568;5.448;2022-10-31T09:22:56;98392.00;;;23.06;53.93
28267;BME280;15525;45.568;5.448;2022-10-31T09:25:22;98426.84;;;23.33;53.55
28267;BME280;15525;45.568;5.448;2022-10-31T09:33:05;98402.88;;;24.17;51.60
28267;BME280;15525;45.568;5.448;2022-10-31T09:35:31;98405.16;;;24.70;50.67
28267;BME280;15525;45.568;5.448;2022-10-31T09:38:01;98413.81;;;24.88;50.12
28267;BME280;15525;45.568;5.448;2022-10-31T09:40:40;98413.97;;;25.10;49.76
28267;BME280;15525;45.568;5.448;2022-10-31T09:48:31;98399.88;;;25.58;49.21
28267;BME280;15525;45.568;5.448;2022-10-31T09:51:05;98375.72;;;25.29;48.74
28267;BME280;15525;45.568;5.448;2022-10-31T09:55:58;98397.31;;;25.50;48.78
28267;BME280;15525;45.568;5.448;2022-10-31T09:58:26;98392.75;;;25.38;48.87
28267;BME280;15525;45.568;5.448;2022-10-31T10:00:54;98382.88;;;24.72;48.98
28267;BME280;15525;45.568;5.448;2022-10-31T10:03:45;98391.81;;;24.84;49.20
28267;BME280;15525;45.568;5.448;2022-10-31T10:06:15;98402.66;;;24.81;49.71
28267;BME280;15525;45.568;5.448;2022-10-31T10:08:42;98384.09;;;24.74;49.49
28267;BME280;15525;45.568;5.448;2022-10-31T10:17:17;98388.84;;;24.19;50.55
28267;BME280;15525;45.568;5.448;2022-10-31T10:20:06;98405.41;;;24.38;49.24
28267;BME280;15525;45.568;5.448;2022-10-31T10:28:03;98382.91;;;24.44;49.25
28267;BME280;15525;45.568;5.448;2022-10-31T10:33:30;98371.97;;;25.22;48.02
28267;BME280;15525;45.568;5.448;2022-10-31T10:35:58;98374.38;;;25.39;47.24
28267;BME280;15525;45.568;5.448;2022-10-31T10:38:47;98378.63;;;25.36;47.17
28267;BME280;15525;45.568;5.448;2022-10-31T10:41:21;98387.28;;;25.73;46.35
28267;BME280;15525;45.568;5.448;2022-10-31T10:43:51;98359.84;;;25.38;46.52
28267;BME280;15525;45.568;5.448;2022-10-31T10:49:22;98368.75;;;26.04;45.89
28267;BME280;15525;45.568;5.448;2022-10-31T10:58:01;98359.91;;;25.76;45.91
28267;BME280;15525;45.568;5.448;2022-10-31T11:02:56;98349.22;;;26.28;44.83
28267;BME280;15525;45.568;5.448;2022-10-31T11:07:56;98354.78;;;25.75;45.45
28267;BME280;15525;45.568;5.448;2022-10-31T11:10:21;98367.63;;;25.71;45.60
28267;BME280;15525;45.568;5.448;2022-10-31T11:13:17;98358.78;;;25.43;46.37
28267;BME280;15525;45.568;5.448;2022-10-31T11:16:09;98344.00;;;26.01;45.39
28267;BME280;15525;45.568;5.448;2022-10-31T11:18:41;98335.28;;;26.37;44.95
28267;BME280;15525;45.568;5.448;2022-10-31T11:21:21;98340.22;;;26.28;44.78
28267;BME280;15525;45.568;5.448;2022-10-31T11:23:46;98337.19;;;25.95;45.45
28267;BME280;15525;45.568;5.448;2022-10-31T11:26:20;98326.13;;;25.53;44.94
28267;BME280;15525;45.568;5.448;2022-10-31T11:28:56;98343.91;;;25.44;45.38
28267;BME280;15525;45.568;5.448;2022-10-31T11:31:22;98330.84;;;25.22;45.76
28267;BME280;15525;45.568;5.448;2022-10-31T11:33:51;98333.06;;;25.66;44.82
28267;BME280;15525;45.568;5.448;2022-10-31T11:36:26;98330.22;;;25.63;44.63
28267;BME280;15525;45.568;5.448;2022-10-31T11:38:53;98306.56;;;25.74;44.09
28267;BME280;15525;45.568;5.448;2022-10-31T11:41:39;98304.28;;;26.36;43.28
28267;BME280;15525;45.568;5.448;2022-10-31T11:46:42;98293.22;;;26.33;43.29
28267;BME280;15525;45.568;5.448;2022-10-31T11:49:40;98295.59;;;26.12;42.91
28267;BME280;15525;45.568;5.448;2022-10-31T11:52:18;98290.66;;;26.21;42.80
28267;BME280;15525;45.568;5.448;2022-10-31T11:57:29;98290.19;;;25.96;42.40
28267;BME280;15525;45.568;5.448;2022-10-31T12:00:00;98299.22;;;25.78;43.45
28267;BME280;15525;45.568;5.448;2022-10-31T12:02:26;98287.28;;;25.89;43.35
28267;BME280;15525;45.568;5.448;2022-10-31T12:05:19;98283.38;;;26.32;42.34
28267;BME280;15525;45.568;5.448;2022-10-31T12:07:47;98274.38;;;26.31;42.88
28267;BME280;15525;45.568;5.448;2022-10-31T12:10:14;98256.09;;;25.78;43.54
28267;BME280;15525;45.568;5.448;2022-10-31T12:12:52;98274.47;;;25.93;43.68
28267;BME280;15525;45.568;5.448;2022-10-31T12:15:33;98271.28;;;26.33;43.11
28267;BME280;15525;45.568;5.448;2022-10-31T12:19:14;98251.22;;;26.55;42.19
28267;BME280;15525;45.568;5.448;2022-10-31T12:24:00;98259.38;;;26.25;42.84
28267;BME280;15525;45.568;5.448;2022-10-31T12:26:48;98221.53;;;25.93;43.13
28267;BME280;15525;45.568;5.448;2022-10-31T12:29:26;98257.03;;;25.86;43.50
28267;BME280;15525;45.568;5.448;2022-10-31T12:37:31;98232.03;;;25.91;43.16
28267;BME280;15525;45.568;5.448;2022-10-31T12:40:34;98247.25;;;25.66;43.69
28267;BME280;15525;45.568;5.448;2022-10-31T12:50:56;98233.06;;;26.47;42.47
28267;BME280;15525;45.568;5.448;2022-10-31T12:59:14;98227.03;;;25.93;42.79
28267;BME280;15525;45.568;5.448;2022-10-31T13:01:50;98228.44;;;25.68;43.21
28267;BME280;15525;45.568;5.448;2022-10-31T13:04:42;98222.13;;;25.64;43.73
28267;BME280;15525;45.568;5.448;2022-10-31T13:07:19;98226.09;;;25.66;43.46
28267;BME280;15525;45.568;5.448;2022-10-31T13:09:56;98226.09;;;26.08;42.90
28267;BME280;15525;45.568;5.448;2022-10-31T13:12:24;98225.06;;;26.16;42.86
28267;BME280;15525;45.568;5.448;2022-10-31T13:14:57;98216.16;;;25.81;43.70
28267;BME280;15525;45.568;5.448;2022-10-31T13:17:33;98199.78;;;25.84;43.60
28267;BME280;15525;45.568;5.448;2022-10-31T13:20:34;98216.72;;;25.48;44.16
28267;BME280;15525;45.568;5.448;2022-10-31T13:25:50;98207.09;;;25.96;43.74
28267;BME280;15525;45.568;5.448;2022-10-31T13:28:37;98186.16;;;26.10;42.85
28267;BME280;15525;45.568;5.448;2022-10-31T13:31:06;98208.22;;;26.40;43.01
28267;BME280;15525;45.568;5.448;2022-10-31T13:33:39;98193.88;;;26.76;42.44
28267;BME280;15525;45.568;5.448;2022-10-31T13:36:29;98204.69;;;27.17;41.71
28267;BME280;15525;45.568;5.448;2022-10-31T13:44:22;98205.56;;;27.21;40.88
28267;BME280;15525;45.568;5.448;2022-10-31T13:46:56;98197.28;;;26.92;40.85
28267;BME280;15525;45.568;5.448;2022-10-31T13:52:14;98169.34;;;26.90;41.09
28267;BME280;15525;45.568;5.448;2022-10-31T13:54:43;98169.06;;;26.98;41.12
28267;BME280;15525;45.568;5.448;2022-10-31T13:57:22;98179.31;;;27.01;40.59
28267;BME280;15525;45.568;5.448;2022-10-31T13:59:54;98171.50;;;26.74;41.22
28267;BME280;15525;45.568;5.448;2022-10-31T14:02:33;98171.53;;;27.33;40.79
28267;BME280;15525;45.568;5.448;2022-10-31T14:05:03;98160.53;;;27.73;39.86
28267;BME280;15525;45.568;5.448;2022-10-31T14:07:30;98153.81;;;27.67;40.32
28267;BME280;15525;45.568;5.448;2022-10-31T14:10:00;98153.50;;;27.39;40.21
28267;BME280;15525;45.568;5.448;2022-10-31T14:15:20;98157.59;;;27.52;40.13
28267;BME280;15525;45.568;5.448;2022-10-31T14:22:39;98144.06;;;27.07;41.10
28267;BME280;15525;45.568;5.448;2022-10-31T14:25:36;98142.19;;;27.14;40.97
28267;BME280;15525;45.568;5.448;2022-10-31T14:28:37;98135.50;;;26.82;40.78
28267;BME280;15525;45.568;5.448;2022-10-31T14:31:21;98140.44;;;26.70;41.09
28267;BME280;15525;45.568;5.448;2022-10-31T14:33:48;98154.84;;;27.19;40.57
28267;BME280;15525;45.568;5.448;2022-10-31T14:36:24;98146.66;;;27.59;39.88
28267;BME280;15525;45.568;5.448;2022-10-31T14:39:09;98149.66;;;27.80;39.66
28267;BME280;15525;45.568;5.448;2022-10-31T14:49:39;98121.75;;;26.82;39.76
28267;BME280;15525;45.568;5.448;2022-10-31T14:52:13;98113.00;;;26.47;40.55
28267;BME280;15525;45.568;5.448;2022-10-31T14:54:44;98108.09;;;26.08;40.72
28267;BME280;15525;45.568;5.448;2022-10-31T14:57:19;98096.69;;;26.32;40.35
28267;BME280;15525;45.568;5.448;2022-10-31T14:59:50;98079.81;;;26.30;40.63
28267;BME280;15525;45.568;5.448;2022-10-31T15:02:29;98082.56;;;26.30;40.57
28267;BME280;15525;45.568;5.448;2022-10-31T15:05:00;98065.75;;;26.61;40.06
28267;BME280;15525;45.568;5.448;2022-10-31T15:07:27;98085.34;;;26.89;39.46
28267;BME280;15525;45.568;5.448;2022-10-31T15:10:00;98061.09;;;26.98;39.19
28267;BME280;15525;45.568;5.448;2022-10-31T15:12:29;98084.25;;;27.30;38.81
28267;BME280;15525;45.568;5.448;2022-10-31T15:14:55;98086.94;;;27.23;38.95
28267;BME280;15525;45.568;5.448;2022-10-31T15:17:22;98091.38;;;27.01;39.29